Terminal Aerodrome Forecast
Issued by NWS

Home | Current Version | Previous Version | Text Only | Print | Product List | Glossary On
Versions: 1 2 3 4 5 6 7 8 9 10 11 12 13 14 15 16 17 18 19 20 21 22 23 24
733
FTUS46 KSEW 242335
TAFSEA
TAF
KSEA 242335Z 2500/2606 26004KT P6SM SCT030
     FM250200 32004KT P6SM SCT035
     FM250400 03006KT P6SM SCT035
     FM251200 02005KT P6SM SCT015 BKN025
     FM251700 32005KT P6SM BKN030
     FM252000 33005KT P6SM SCT035
     FM260000 35008KT P6SM SCT040 BKN060
     FM260500 VRB03KT P6SM BKN050=

USA.gov is the U.S. government's official web portal to all federal, state and local government web resources and services.